Kansai — JD3272 — position and weather

sailwx.info

Track history (hours):
 
Tides and Currents Weather Stations Pressure Air Temp Water Temp Dewpoint Dewpoint Depression Visibility Wind Speed Wind Dir Waves Ship Positions

Kansai

Last reported at 2017-Jan-19 23:13 UTC. Time now 2017-Jan-21 19:36 UTC.
Position N 34°02' E 134°58'.

Length 73 m; draft 4.2 m.

Type: Cargo ship. MMSI: 431003134.

Date/timePositionNaut miles runAvg speedWind from/ knotsBaromVisibWave heightAir tempDewpointWater temp
2017-Jan-19 23:13N 34°02' E 134°58'811.3
2017-Jan-19 22:32N 34°09' E 134°59'1411.5
2017-Jan-19 21:20N 34°23' E 134°59'911.3
2017-Jan-19 20:33N 34°32' E 135°02'8 7.6
2017-Jan-19 19:33N 34°37' E 134°55'6 0.3
2017-Jan-18 21:13N 34°41' E 134°50'710.4
2017-Jan-18 20:33N 34°37' E 134°57'9 9.1
2017-Jan-18 19:33N 34°31' E 135°04'  
2017-Jan-12 17:33N 34°03' E 135°00'2311.6
2017-Jan-12 15:33N 34°26' E 135°01'1010.3
2017-Jan-12 14:32N 34°37' E 135°01'10 9.6
2017-Jan-12 13:29N 34°40' E 134°49'1 0.0
2017-Jan-11 20:31N 34°41' E 134°49'1111.2
2017-Jan-11 19:33N 34°37' E 135°01'9 8.5
2017-Jan-11 18:32N 34°29' E 135°04'233 6.8
2017-Jan-10 08:25N 35°08' E 139°43'910.5
2017-Jan-10 07:33N 35°17' E 139°45'10 9.6
2017-Jan-10 06:33N 35°27' E 139°47'1211.5
2017-Jan-10 05:31N 35°36' E 139°56'5 1.0
2017-Jan-10 00:20N 35°41' E 139°58'3 4.2
2017-Jan-09 23:33N 35°37' E 139°58'  
Track history (hours):
 
Tides and Currents Weather Stations Pressure Air Temp Water Temp Dewpoint Dewpoint Depression Visibility Wind Speed Wind Dir Waves Ship Positions

Kansai

Last reported at 2017-Jan-19 23:13 UTC. Time now 2017-Jan-21 19:36 UTC.
Position N 34°02' E 134°58'.

Length 73 m; draft 4.2 m.

Type: Cargo ship. MMSI: 431003134.

Date/timePositionNaut miles runAvg speedWind from/ knotsBaromVisibWave heightAir tempDewpointWater temp
2017-Jan-19 23:13N 34°02' E 134°58'811.3
2017-Jan-19 22:32N 34°09' E 134°59'1411.5
2017-Jan-19 21:20N 34°23' E 134°59'911.3
2017-Jan-19 20:33N 34°32' E 135°02'8 7.6
2017-Jan-19 19:33N 34°37' E 134°55'6 0.3
2017-Jan-18 21:13N 34°41' E 134°50'710.4
2017-Jan-18 20:33N 34°37' E 134°57'9 9.1
2017-Jan-18 19:33N 34°31' E 135°04'  
2017-Jan-12 17:33N 34°03' E 135°00'2311.6
2017-Jan-12 15:33N 34°26' E 135°01'1010.3
2017-Jan-12 14:32N 34°37' E 135°01'10 9.6
2017-Jan-12 13:29N 34°40' E 134°49'1 0.0
2017-Jan-11 20:31N 34°41' E 134°49'1111.2
2017-Jan-11 19:33N 34°37' E 135°01'9 8.5
2017-Jan-11 18:32N 34°29' E 135°04'233 6.8
2017-Jan-10 08:25N 35°08' E 139°43'910.5
2017-Jan-10 07:33N 35°17' E 139°45'10 9.6
2017-Jan-10 06:33N 35°27' E 139°47'1211.5
2017-Jan-10 05:31N 35°36' E 139°56'5 1.0
2017-Jan-10 00:20N 35°41' E 139°58'3 4.2
2017-Jan-09 23:33N 35°37' E 139°58'  

Dump ship's entire track history